sensor_id;sensor_type;location;lat;lon;timestamp;temperature;humidity
15636;DHT22;7917;50.818;6.972;2024-01-30T00:00:12;5.30;99.90
15636;DHT22;7917;50.818;6.972;2024-01-30T00:02:38;5.40;99.90
15636;DHT22;7917;50.818;6.972;2024-01-30T00:05:06;5.40;99.90
15636;DHT22;7917;50.818;6.972;2024-01-30T00:07:33;5.30;99.90
15636;DHT22;7917;50.818;6.972;2024-01-30T00:10:00;5.20;99.90
15636;DHT22;7917;50.818;6.972;2024-01-30T00:12:26;5.20;99.90
15636;DHT22;7917;50.818;6.972;2024-01-30T00:14:53;5.20;99.90
15636;DHT22;7917;50.818;6.972;2024-01-30T00:17:20;5.20;99.90
15636;DHT22;7917;50.818;6.972;2024-01-30T00:19:47;5.20;99.90
15636;DHT22;7917;50.818;6.972;2024-01-30T00:22:14;5.10;99.90
15636;DHT22;7917;50.818;6.972;2024-01-30T00:24:41;5.10;99.90
15636;DHT22;7917;50.818;6.972;2024-01-30T00:27:08;5.00;99.90
15636;DHT22;7917;50.818;6.972;2024-01-30T00:29:35;5.00;99.90
15636;DHT22;7917;50.818;6.972;2024-01-30T00:32:01;4.90;99.90
15636;DHT22;7917;50.818;6.972;2024-01-30T00:34:28;4.90;99.90
15636;DHT22;7917;50.818;6.972;2024-01-30T00:36:54;4.90;99.90
15636;DHT22;7917;50.818;6.972;2024-01-30T00:39:22;4.90;99.90
15636;DHT22;7917;50.818;6.972;2024-01-30T00:41:49;4.90;99.90
15636;DHT22;7917;50.818;6.972;2024-01-30T00:44:15;4.90;99.90
15636;DHT22;7917;50.818;6.972;2024-01-30T00:46:41;4.90;99.90
15636;DHT22;7917;50.818;6.972;2024-01-30T00:49:08;4.90;99.90
15636;DHT22;7917;50.818;6.972;2024-01-30T00:51:34;4.90;99.90
15636;DHT22;7917;50.818;6.972;2024-01-30T00:54:01;4.90;99.90
15636;DHT22;7917;50.818;6.972;2024-01-30T00:56:29;4.90;99.90
15636;DHT22;7917;50.818;6.972;2024-01-30T00:58:56;5.00;99.90
15636;DHT22;7917;50.818;6.972;2024-01-30T01:01:22;5.00;99.90
15636;DHT22;7917;50.818;6.972;2024-01-30T01:03:49;5.00;99.90
15636;DHT22;7917;50.818;6.972;2024-01-30T01:06:16;4.90;99.90
15636;DHT22;7917;50.818;6.972;2024-01-30T01:08:42;4.90;99.90
15636;DHT22;7917;50.818;6.972;2024-01-30T01:11:08;4.90;99.90
15636;DHT22;7917;50.818;6.972;2024-01-30T01:13:36;5.00;99.90
15636;DHT22;7917;50.818;6.972;2024-01-30T01:16:02;5.10;99.90
15636;DHT22;7917;50.818;6.972;2024-01-30T01:18:29;5.10;99.90
15636;DHT22;7917;50.818;6.972;2024-01-30T01:20:56;5.20;99.90
15636;DHT22;7917;50.818;6.972;2024-01-30T01:23:22;5.20;99.90
15636;DHT22;7917;50.818;6.972;2024-01-30T01:25:48;5.10;99.90
15636;DHT22;7917;50.818;6.972;2024-01-30T01:28:15;5.10;99.90
15636;DHT22;7917;50.818;6.972;2024-01-30T01:30:43;5.10;99.90
15636;DHT22;7917;50.818;6.972;2024-01-30T01:33:09;5.10;99.90
15636;DHT22;7917;50.818;6.972;2024-01-30T01:35:36;5.10;99.90
15636;DHT22;7917;50.818;6.972;2024-01-30T01:38:02;5.10;99.90
15636;DHT22;7917;50.818;6.972;2024-01-30T01:40:29;5.10;99.90
15636;DHT22;7917;50.818;6.972;2024-01-30T01:42:56;5.20;99.90
15636;DHT22;7917;50.818;6.972;2024-01-30T01:45:23;5.10;99.90
15636;DHT22;7917;50.818;6.972;2024-01-30T01:47:51;5.20;99.90
15636;DHT22;7917;50.818;6.972;2024-01-30T01:50:18;5.20;99.90
15636;DHT22;7917;50.818;6.972;2024-01-30T01:52:47;5.20;99.90
15636;DHT22;7917;50.818;6.972;2024-01-30T01:55:14;5.20;99.90
15636;DHT22;7917;50.818;6.972;2024-01-30T01:57:41;5.30;99.90
15636;DHT22;7917;50.818;6.972;2024-01-30T02:00:09;5.20;99.90
15636;DHT22;7917;50.818;6.972;2024-01-30T02:02:36;5.30;99.90
15636;DHT22;7917;50.818;6.972;2024-01-30T02:05:04;5.30;99.90
15636;DHT22;7917;50.818;6.972;2024-01-30T02:07:31;5.40;99.90
15636;DHT22;7917;50.818;6.972;2024-01-30T02:09:57;5.40;99.90
15636;DHT22;7917;50.818;6.972;2024-01-30T02:12:24;5.30;99.90
15636;DHT22;7917;50.818;6.972;2024-01-30T02:14:50;5.40;99.90
15636;DHT22;7917;50.818;6.972;2024-01-30T02:17:17;5.30;99.90
15636;DHT22;7917;50.818;6.972;2024-01-30T02:19:43;5.40;99.90
15636;DHT22;7917;50.818;6.972;2024-01-30T02:22:11;5.40;99.90
15636;DHT22;7917;50.818;6.972;2024-01-30T02:24:37;5.40;99.90
15636;DHT22;7917;50.818;6.972;2024-01-30T02:27:04;5.40;99.90
15636;DHT22;7917;50.818;6.972;2024-01-30T02:29:30;5.40;99.90
15636;DHT22;7917;50.818;6.972;2024-01-30T02:31:57;5.40;99.90
15636;DHT22;7917;50.818;6.972;2024-01-30T02:34:24;5.30;99.90
15636;DHT22;7917;50.818;6.972;2024-01-30T02:36:50;5.30;99.90
15636;DHT22;7917;50.818;6.972;2024-01-30T02:39:17;5.30;99.90
15636;DHT22;7917;50.818;6.972;2024-01-30T02:41:43;5.40;99.90
15636;DHT22;7917;50.818;6.972;2024-01-30T02:44:09;5.30;99.90
15636;DHT22;7917;50.818;6.972;2024-01-30T02:46:36;5.30;99.90
15636;DHT22;7917;50.818;6.972;2024-01-30T02:49:02;5.40;99.90
15636;DHT22;7917;50.818;6.972;2024-01-30T02:51:28;5.30;99.90
15636;DHT22;7917;50.818;6.972;2024-01-30T02:53:55;5.30;99.90
15636;DHT22;7917;50.818;6.972;2024-01-30T02:56:22;5.30;99.90
15636;DHT22;7917;50.818;6.972;2024-01-30T02:58:48;5.30;99.90
15636;DHT22;7917;50.818;6.972;2024-01-30T03:01:15;5.40;99.90
15636;DHT22;7917;50.818;6.972;2024-01-30T03:03:41;5.40;99.90
15636;DHT22;7917;50.818;6.972;2024-01-30T03:06:09;5.50;99.90
15636;DHT22;7917;50.818;6.972;2024-01-30T03:08:36;5.60;99.90
15636;DHT22;7917;50.818;6.972;2024-01-30T03:11:04;5.70;99.90
15636;DHT22;7917;50.818;6.972;2024-01-30T03:13:31;5.70;99.90
15636;DHT22;7917;50.818;6.972;2024-01-30T03:15:58;5.80;99.90
15636;DHT22;7917;50.818;6.972;2024-01-30T03:18:24;5.70;99.90
15636;DHT22;7917;50.818;6.972;2024-01-30T03:20:51;5.80;99.90
15636;DHT22;7917;50.818;6.972;2024-01-30T03:23:17;5.80;99.90
15636;DHT22;7917;50.818;6.972;2024-01-30T03:25:43;5.70;99.90
15636;DHT22;7917;50.818;6.972;2024-01-30T03:28:10;5.70;99.90
15636;DHT22;7917;50.818;6.972;2024-01-30T03:30:37;5.60;99.90
15636;DHT22;7917;50.818;6.972;2024-01-30T03:33:03;5.60;99.90
15636;DHT22;7917;50.818;6.972;2024-01-30T03:35:30;5.60;99.90
15636;DHT22;7917;50.818;6.972;2024-01-30T03:37:56;5.60;99.90
15636;DHT22;7917;50.818;6.972;2024-01-30T03:40:23;5.60;99.90
15636;DHT22;7917;50.818;6.972;2024-01-30T03:42:49;5.70;99.90
15636;DHT22;7917;50.818;6.972;2024-01-30T03:45:15;5.80;99.90
15636;DHT22;7917;50.818;6.972;2024-01-30T03:47:44;5.80;99.90
15636;DHT22;7917;50.818;6.972;2024-01-30T03:50:10;5.80;99.90
15636;DHT22;7917;50.818;6.972;2024-01-30T03:52:37;5.80;99.90
15636;DHT22;7917;50.818;6.972;2024-01-30T03:55:04;5.80;99.90
15636;DHT22;7917;50.818;6.972;2024-01-30T03:57:30;5.80;99.90
15636;DHT22;7917;50.818;6.972;2024-01-30T03:59:57;5.80;99.90
15636;DHT22;7917;50.818;6.972;2024-01-30T04:05:46;5.70;99.90
15636;DHT22;7917;50.818;6.972;2024-01-30T04:08:12;5.80;99.90
15636;DHT22;7917;50.818;6.972;2024-01-30T04:10:39;5.80;99.90
15636;DHT22;7917;50.818;6.972;2024-01-30T04:13:06;5.90;99.90
15636;DHT22;7917;50.818;6.972;2024-01-30T04:15:32;5.90;99.90
15636;DHT22;7917;50.818;6.972;2024-01-30T04:17:59;6.00;99.90
15636;DHT22;7917;50.818;6.972;2024-01-30T04:20:25;5.90;99.90
15636;DHT22;7917;50.818;6.972;2024-01-30T04:22:53;5.90;99.90
15636;DHT22;7917;50.818;6.972;2024-01-30T04:25:19;6.00;99.90
15636;DHT22;7917;50.818;6.972;2024-01-30T04:27:45;6.00;99.90
15636;DHT22;7917;50.818;6.972;2024-01-30T04:30:12;5.90;99.90
15636;DHT22;7917;50.818;6.972;2024-01-30T04:32:39;5.90;99.90
15636;DHT22;7917;50.818;6.972;2024-01-30T04:35:06;6.00;99.90
15636;DHT22;7917;50.818;6.972;2024-01-30T04:37:33;5.90;99.90
15636;DHT22;7917;50.818;6.972;2024-01-30T04:40:00;5.90;99.90
15636;DHT22;7917;50.818;6.972;2024-01-30T04:42:26;5.90;99.90
15636;DHT22;7917;50.818;6.972;2024-01-30T04:44:53;5.90;99.90
15636;DHT22;7917;50.818;6.972;2024-01-30T04:47:19;5.90;99.90
15636;DHT22;7917;50.818;6.972;2024-01-30T04:49:49;5.90;99.90
15636;DHT22;7917;50.818;6.972;2024-01-30T04:52:16;6.00;99.90
15636;DHT22;7917;50.818;6.972;2024-01-30T04:54:42;6.00;99.90
15636;DHT22;7917;50.818;6.972;2024-01-30T04:57:10;6.10;99.90
15636;DHT22;7917;50.818;6.972;2024-01-30T04:59:38;6.00;99.90
15636;DHT22;7917;50.818;6.972;2024-01-30T05:02:04;6.00;99.90
15636;DHT22;7917;50.818;6.972;2024-01-30T05:04:31;5.90;99.90
15636;DHT22;7917;50.818;6.972;2024-01-30T05:06:57;5.90;99.90
15636;DHT22;7917;50.818;6.972;2024-01-30T05:09:24;5.90;99.90
15636;DHT22;7917;50.818;6.972;2024-01-30T05:11:50;5.90;99.90
15636;DHT22;7917;50.818;6.972;2024-01-30T05:14:18;5.80;99.90
15636;DHT22;7917;50.818;6.972;2024-01-30T05:16:45;5.80;99.90
15636;DHT22;7917;50.818;6.972;2024-01-30T05:19:13;5.70;99.90
15636;DHT22;7917;50.818;6.972;2024-01-30T05:21:39;5.70;99.90
15636;DHT22;7917;50.818;6.972;2024-01-30T05:24:06;5.70;99.90
15636;DHT22;7917;50.818;6.972;2024-01-30T05:26:33;5.70;99.90
15636;DHT22;7917;50.818;6.972;2024-01-30T05:28:59;5.70;99.90
15636;DHT22;7917;50.818;6.972;2024-01-30T05:31:26;5.60;99.90
15636;DHT22;7917;50.818;6.972;2024-01-30T05:33:54;5.70;99.90
15636;DHT22;7917;50.818;6.972;2024-01-30T05:36:21;5.70;99.90
15636;DHT22;7917;50.818;6.972;2024-01-30T05:38:47;5.60;99.90
15636;DHT22;7917;50.818;6.972;2024-01-30T05:41:14;5.60;99.90
15636;DHT22;7917;50.818;6.972;2024-01-30T05:43:44;5.50;99.90
15636;DHT22;7917;50.818;6.972;2024-01-30T05:46:10;5.60;99.90
15636;DHT22;7917;50.818;6.972;2024-01-30T05:48:37;5.60;99.90
15636;DHT22;7917;50.818;6.972;2024-01-30T05:51:04;5.60;99.90
15636;DHT22;7917;50.818;6.972;2024-01-30T05:53:33;5.40;99.90
15636;DHT22;7917;50.818;6.972;2024-01-30T05:56:00;5.50;99.90
15636;DHT22;7917;50.818;6.972;2024-01-30T05:58:27;5.50;99.90
15636;DHT22;7917;50.818;6.972;2024-01-30T06:00:53;5.40;99.90
15636;DHT22;7917;50.818;6.972;2024-01-30T06:03:20;5.40;99.90
15636;DHT22;7917;50.818;6.972;2024-01-30T06:05:47;5.40;99.90
15636;DHT22;7917;50.818;6.972;2024-01-30T06:08:14;5.40;99.90
15636;DHT22;7917;50.818;6.972;2024-01-30T06:10:40;5.40;99.90
15636;DHT22;7917;50.818;6.972;2024-01-30T06:13:07;5.40;99.90
15636;DHT22;7917;50.818;6.972;2024-01-30T06:15:33;5.40;99.90
15636;DHT22;7917;50.818;6.972;2024-01-30T06:18:00;5.50;99.90
15636;DHT22;7917;50.818;6.972;2024-01-30T06:20:26;5.50;99.90
15636;DHT22;7917;50.818;6.972;2024-01-30T06:22:54;5.60;99.90
15636;DHT22;7917;50.818;6.972;2024-01-30T06:25:20;5.60;99.90
15636;DHT22;7917;50.818;6.972;2024-01-30T06:27:47;5.60;99.90
15636;DHT22;7917;50.818;6.972;2024-01-30T06:30:14;5.60;99.90
15636;DHT22;7917;50.818;6.972;2024-01-30T06:32:40;5.60;99.90
15636;DHT22;7917;50.818;6.972;2024-01-30T06:35:07;5.70;99.90
15636;DHT22;7917;50.818;6.972;2024-01-30T06:37:34;5.70;99.90
15636;DHT22;7917;50.818;6.972;2024-01-30T06:40:01;5.80;99.90
15636;DHT22;7917;50.818;6.972;2024-01-30T06:42:28;5.90;99.90
15636;DHT22;7917;50.818;6.972;2024-01-30T06:44:54;5.90;99.90
15636;DHT22;7917;50.818;6.972;2024-01-30T06:47:21;5.90;99.90
15636;DHT22;7917;50.818;6.972;2024-01-30T06:49:47;6.00;99.90
15636;DHT22;7917;50.818;6.972;2024-01-30T06:52:14;6.00;99.90
15636;DHT22;7917;50.818;6.972;2024-01-30T06:54:40;6.10;99.90
15636;DHT22;7917;50.818;6.972;2024-01-30T06:57:08;6.10;99.90
15636;DHT22;7917;50.818;6.972;2024-01-30T06:59:37;6.20;99.90
15636;DHT22;7917;50.818;6.972;2024-01-30T07:02:09;6.20;99.90
15636;DHT22;7917;50.818;6.972;2024-01-30T07:04:42;6.20;99.90
15636;DHT22;7917;50.818;6.972;2024-01-30T07:07:08;6.20;99.90
15636;DHT22;7917;50.818;6.972;2024-01-30T07:09:38;6.20;99.90
15636;DHT22;7917;50.818;6.972;2024-01-30T07:12:05;6.10;99.90
15636;DHT22;7917;50.818;6.972;2024-01-30T07:14:33;6.20;99.90
15636;DHT22;7917;50.818;6.972;2024-01-30T07:16:59;6.20;99.90
15636;DHT22;7917;50.818;6.972;2024-01-30T07:19:26;6.20;99.90
15636;DHT22;7917;50.818;6.972;2024-01-30T07:21:53;6.20;99.90
15636;DHT22;7917;50.818;6.972;2024-01-30T07:24:20;6.10;99.90
15636;DHT22;7917;50.818;6.972;2024-01-30T07:26:46;6.10;99.90
15636;DHT22;7917;50.818;6.972;2024-01-30T07:29:13;6.20;99.90
15636;DHT22;7917;50.818;6.972;2024-01-30T07:31:40;6.10;99.90
15636;DHT22;7917;50.818;6.972;2024-01-30T07:34:06;6.20;99.90
15636;DHT22;7917;50.818;6.972;2024-01-30T07:36:33;6.20;99.90
15636;DHT22;7917;50.818;6.972;2024-01-30T07:39:02;6.20;99.90
15636;DHT22;7917;50.818;6.972;2024-01-30T07:41:29;6.30;99.90
15636;DHT22;7917;50.818;6.972;2024-01-30T07:43:56;6.30;99.90
15636;DHT22;7917;50.818;6.972;2024-01-30T07:46:22;6.40;99.90
15636;DHT22;7917;50.818;6.972;2024-01-30T07:48:51;6.50;99.90
15636;DHT22;7917;50.818;6.972;2024-01-30T07:51:18;6.60;99.90
15636;DHT22;7917;50.818;6.972;2024-01-30T07:53:45;6.60;99.90
15636;DHT22;7917;50.818;6.972;2024-01-30T07:56:15;6.70;99.90
15636;DHT22;7917;50.818;6.972;2024-01-30T07:58:42;6.70;99.90
15636;DHT22;7917;50.818;6.972;2024-01-30T08:01:08;6.80;99.90
15636;DHT22;7917;50.818;6.972;2024-01-30T08:03:35;6.90;99.90
15636;DHT22;7917;50.818;6.972;2024-01-30T08:06:03;7.00;99.90
15636;DHT22;7917;50.818;6.972;2024-01-30T08:08:30;7.00;99.90
15636;DHT22;7917;50.818;6.972;2024-01-30T08:10:57;7.00;99.90
15636;DHT22;7917;50.818;6.972;2024-01-30T08:13:24;7.10;99.90
15636;DHT22;7917;50.818;6.972;2024-01-30T08:15:50;7.10;99.90
15636;DHT22;7917;50.818;6.972;2024-01-30T08:18:17;7.20;99.90
15636;DHT22;7917;50.818;6.972;2024-01-30T08:20:43;7.20;99.90
15636;DHT22;7917;50.818;6.972;2024-01-30T08:23:11;7.20;99.90
15636;DHT22;7917;50.818;6.972;2024-01-30T08:25:37;7.30;99.90
15636;DHT22;7917;50.818;6.972;2024-01-30T08:28:04;7.30;99.90
15636;DHT22;7917;50.818;6.972;2024-01-30T08:30:31;7.30;99.90
15636;DHT22;7917;50.818;6.972;2024-01-30T08:32:58;7.30;99.90
15636;DHT22;7917;50.818;6.972;2024-01-30T08:35:24;7.40;99.90
15636;DHT22;7917;50.818;6.972;2024-01-30T08:37:51;7.40;99.90
15636;DHT22;7917;50.818;6.972;2024-01-30T08:40:24;7.50;99.90
15636;DHT22;7917;50.818;6.972;2024-01-30T08:42:51;7.60;99.90
15636;DHT22;7917;50.818;6.972;2024-01-30T08:45:18;7.60;99.90
15636;DHT22;7917;50.818;6.972;2024-01-30T08:47:45;7.60;99.90
15636;DHT22;7917;50.818;6.972;2024-01-30T08:50:12;7.60;99.90
15636;DHT22;7917;50.818;6.972;2024-01-30T08:52:39;7.60;99.90
15636;DHT22;7917;50.818;6.972;2024-01-30T08:55:06;7.60;99.90
15636;DHT22;7917;50.818;6.972;2024-01-30T08:57:34;7.60;99.90
15636;DHT22;7917;50.818;6.972;2024-01-30T09:00:00;7.70;99.90
15636;DHT22;7917;50.818;6.972;2024-01-30T09:02:30;7.70;99.90
15636;DHT22;7917;50.818;6.972;2024-01-30T09:04:57;7.70;99.90
15636;DHT22;7917;50.818;6.972;2024-01-30T09:07:23;7.80;99.90
15636;DHT22;7917;50.818;6.972;2024-01-30T09:09:50;7.80;99.90
15636;DHT22;7917;50.818;6.972;2024-01-30T09:12:17;7.80;99.90
15636;DHT22;7917;50.818;6.972;2024-01-30T09:14:44;7.90;99.90
15636;DHT22;7917;50.818;6.972;2024-01-30T09:17:11;8.00;99.90
15636;DHT22;7917;50.818;6.972;2024-01-30T09:19:38;8.00;99.90
15636;DHT22;7917;50.818;6.972;2024-01-30T09:22:04;8.20;99.90
15636;DHT22;7917;50.818;6.972;2024-01-30T09:24:31;8.30;99.90
15636;DHT22;7917;50.818;6.972;2024-01-30T09:26:57;8.40;99.90
15636;DHT22;7917;50.818;6.972;2024-01-30T09:29:24;8.60;99.90
15636;DHT22;7917;50.818;6.972;2024-01-30T09:31:51;8.90;99.90
15636;DHT22;7917;50.818;6.972;2024-01-30T09:34:18;9.10;99.90
15636;DHT22;7917;50.818;6.972;2024-01-30T09:36:45;9.30;99.90
15636;DHT22;7917;50.818;6.972;2024-01-30T09:39:11;9.40;99.90
15636;DHT22;7917;50.818;6.972;2024-01-30T09:41:45;9.60;99.90
15636;DHT22;7917;50.818;6.972;2024-01-30T09:44:16;9.90;99.90
15636;DHT22;7917;50.818;6.972;2024-01-30T09:46:43;10.00;99.90
15636;DHT22;7917;50.818;6.972;2024-01-30T09:49:10;10.20;99.90
15636;DHT22;7917;50.818;6.972;2024-01-30T09:51:37;10.30;99.90
15636;DHT22;7917;50.818;6.972;2024-01-30T09:54:04;10.40;99.90
15636;DHT22;7917;50.818;6.972;2024-01-30T09:56:31;10.40;99.90
15636;DHT22;7917;50.818;6.972;2024-01-30T09:58:58;10.50;99.90
15636;DHT22;7917;50.818;6.972;2024-01-30T10:01:25;10.60;99.90
15636;DHT22;7917;50.818;6.972;2024-01-30T10:03:55;10.60;99.90
15636;DHT22;7917;50.818;6.972;2024-01-30T10:06:25;10.60;99.90
15636;DHT22;7917;50.818;6.972;2024-01-30T10:08:52;10.60;99.90
15636;DHT22;7917;50.818;6.972;2024-01-30T10:11:18;10.50;99.90
15636;DHT22;7917;50.818;6.972;2024-01-30T10:13:45;10.50;99.90
15636;DHT22;7917;50.818;6.972;2024-01-30T10:16:14;10.50;99.90
15636;DHT22;7917;50.818;6.972;2024-01-30T10:18:42;10.50;99.90
15636;DHT22;7917;50.818;6.972;2024-01-30T10:21:12;10.60;99.90
15636;DHT22;7917;50.818;6.972;2024-01-30T10:23:40;10.60;99.90
15636;DHT22;7917;50.818;6.972;2024-01-30T10:26:07;10.70;99.90
15636;DHT22;7917;50.818;6.972;2024-01-30T10:28:34;10.70;99.90
15636;DHT22;7917;50.818;6.972;2024-01-30T10:31:01;10.80;99.90
15636;DHT22;7917;50.818;6.972;2024-01-30T10:33:29;10.80;99.90
15636;DHT22;7917;50.818;6.972;2024-01-30T10:36:00;10.80;99.90
15636;DHT22;7917;50.818;6.972;2024-01-30T10:38:29;10.80;99.90
15636;DHT22;7917;50.818;6.972;2024-01-30T10:40:57;10.80;99.90
15636;DHT22;7917;50.818;6.972;2024-01-30T10:43:24;10.80;99.90
15636;DHT22;7917;50.818;6.972;2024-01-30T10:45:58;10.80;99.90
15636;DHT22;7917;50.818;6.972;2024-01-30T10:48:30;10.80;99.90
15636;DHT22;7917;50.818;6.972;2024-01-30T10:51:00;10.90;99.90
15636;DHT22;7917;50.818;6.972;2024-01-30T10:53:29;10.90;99.90
15636;DHT22;7917;50.818;6.972;2024-01-30T10:55:59;10.90;99.90
15636;DHT22;7917;50.818;6.972;2024-01-30T10:58:26;10.80;99.90
15636;DHT22;7917;50.818;6.972;2024-01-30T11:00:54;10.90;99.90
15636;DHT22;7917;50.818;6.972;2024-01-30T11:03:21;10.90;99.90
15636;DHT22;7917;50.818;6.972;2024-01-30T11:05:52;10.90;99.90
15636;DHT22;7917;50.818;6.972;2024-01-30T11:08:24;10.90;99.90
15636;DHT22;7917;50.818;6.972;2024-01-30T11:10:58;10.90;99.90
15636;DHT22;7917;50.818;6.972;2024-01-30T11:13:27;10.90;99.90
15636;DHT22;7917;50.818;6.972;2024-01-30T11:15:55;10.90;99.90
15636;DHT22;7917;50.818;6.972;2024-01-30T11:18:25;10.90;99.90
15636;DHT22;7917;50.818;6.972;2024-01-30T11:20:52;11.00;99.90
15636;DHT22;7917;50.818;6.972;2024-01-30T11:23:18;11.00;99.90
15636;DHT22;7917;50.818;6.972;2024-01-30T11:25:45;11.10;99.90
15636;DHT22;7917;50.818;6.972;2024-01-30T11:28:14;11.20;99.90
15636;DHT22;7917;50.818;6.972;2024-01-30T11:30:42;11.20;99.90
15636;DHT22;7917;50.818;6.972;2024-01-30T11:33:12;11.30;99.90
15636;DHT22;7917;50.818;6.972;2024-01-30T11:35:40;11.30;99.90
15636;DHT22;7917;50.818;6.972;2024-01-30T11:38:08;11.40;99.90
15636;DHT22;7917;50.818;6.972;2024-01-30T11:40:36;11.40;99.90
15636;DHT22;7917;50.818;6.972;2024-01-30T11:43:05;11.50;99.90
15636;DHT22;7917;50.818;6.972;2024-01-30T11:45:33;11.50;99.90
15636;DHT22;7917;50.818;6.972;2024-01-30T11:48:01;11.40;99.90
15636;DHT22;7917;50.818;6.972;2024-01-30T11:50:29;11.50;99.90
15636;DHT22;7917;50.818;6.972;2024-01-30T11:52:56;11.60;99.90
15636;DHT22;7917;50.818;6.972;2024-01-30T11:55:24;11.60;99.90
15636;DHT22;7917;50.818;6.972;2024-01-30T11:57:51;11.70;99.90
15636;DHT22;7917;50.818;6.972;2024-01-30T12:00:18;11.70;99.90
15636;DHT22;7917;50.818;6.972;2024-01-30T12:02:51;11.70;99.90
15636;DHT22;7917;50.818;6.972;2024-01-30T12:05:21;11.70;99.90
15636;DHT22;7917;50.818;6.972;2024-01-30T12:07:48;11.80;99.90
15636;DHT22;7917;50.818;6.972;2024-01-30T12:10:15;11.80;99.90
15636;DHT22;7917;50.818;6.972;2024-01-30T12:12:44;11.80;99.90
15636;DHT22;7917;50.818;6.972;2024-01-30T12:15:12;11.80;99.90
15636;DHT22;7917;50.818;6.972;2024-01-30T12:17:39;11.80;99.90
15636;DHT22;7917;50.818;6.972;2024-01-30T12:20:08;11.80;99.90
15636;DHT22;7917;50.818;6.972;2024-01-30T12:22:39;11.80;99.90
15636;DHT22;7917;50.818;6.972;2024-01-30T12:25:08;11.80;99.90
15636;DHT22;7917;50.818;6.972;2024-01-30T12:27:35;11.90;99.90
15636;DHT22;7917;50.818;6.972;2024-01-30T12:30:05;12.00;99.90
15636;DHT22;7917;50.818;6.972;2024-01-30T12:32:34;12.00;99.90
15636;DHT22;7917;50.818;6.972;2024-01-30T12:35:01;12.10;99.90
15636;DHT22;7917;50.818;6.972;2024-01-30T12:37:29;12.20;99.90
15636;DHT22;7917;50.818;6.972;2024-01-30T12:39:59;12.20;99.90
15636;DHT22;7917;50.818;6.972;2024-01-30T12:42:27;12.20;99.90
15636;DHT22;7917;50.818;6.972;2024-01-30T12:44:56;12.20;99.90
15636;DHT22;7917;50.818;6.972;2024-01-30T12:47:23;12.20;99.90
15636;DHT22;7917;50.818;6.972;2024-01-30T12:49:50;12.10;99.90
15636;DHT22;7917;50.818;6.972;2024-01-30T12:52:20;12.10;99.90
15636;DHT22;7917;50.818;6.972;2024-01-30T12:54:47;12.10;99.90
15636;DHT22;7917;50.818;6.972;2024-01-30T12:57:14;12.00;99.90
15636;DHT22;7917;50.818;6.972;2024-01-30T12:59:41;12.10;99.90
15636;DHT22;7917;50.818;6.972;2024-01-30T13:02:08;12.10;99.90
15636;DHT22;7917;50.818;6.972;2024-01-30T13:04:35;12.20;99.90
15636;DHT22;7917;50.818;6.972;2024-01-30T13:07:03;12.20;99.90
15636;DHT22;7917;50.818;6.972;2024-01-30T13:09:30;12.20;99.90
15636;DHT22;7917;50.818;6.972;2024-01-30T13:12:00;12.30;99.90
15636;DHT22;7917;50.818;6.972;2024-01-30T13:14:28;12.30;99.90
15636;DHT22;7917;50.818;6.972;2024-01-30T13:16:54;12.50;99.90
15636;DHT22;7917;50.818;6.972;2024-01-30T13:19:21;12.30;99.90
15636;DHT22;7917;50.818;6.972;2024-01-30T13:21:48;12.30;99.90
15636;DHT22;7917;50.818;6.972;2024-01-30T13:24:15;12.20;99.90
15636;DHT22;7917;50.818;6.972;2024-01-30T13:26:43;12.20;99.90
15636;DHT22;7917;50.818;6.972;2024-01-30T13:29:10;12.20;99.90
15636;DHT22;7917;50.818;6.972;2024-01-30T13:31:37;12.20;99.90
15636;DHT22;7917;50.818;6.972;2024-01-30T13:34:11;12.20;99.90
15636;DHT22;7917;50.818;6.972;2024-01-30T13:36:41;12.20;99.90
15636;DHT22;7917;50.818;6.972;2024-01-30T13:39:14;12.10;99.90
15636;DHT22;7917;50.818;6.972;2024-01-30T13:41:44;12.20;99.90
15636;DHT22;7917;50.818;6.972;2024-01-30T13:44:12;12.20;99.90
15636;DHT22;7917;50.818;6.972;2024-01-30T13:46:39;12.20;99.90
15636;DHT22;7917;50.818;6.972;2024-01-30T13:49:06;12.20;99.90
15636;DHT22;7917;50.818;6.972;2024-01-30T13:51:34;12.20;99.90
15636;DHT22;7917;50.818;6.972;2024-01-30T13:54:01;12.30;99.90
15636;DHT22;7917;50.818;6.972;2024-01-30T13:56:28;12.40;99.90
15636;DHT22;7917;50.818;6.972;2024-01-30T13:59:02;12.30;99.90
15636;DHT22;7917;50.818;6.972;2024-01-30T14:01:31;12.40;99.90
15636;DHT22;7917;50.818;6.972;2024-01-30T14:04:00;12.40;99.90
15636;DHT22;7917;50.818;6.972;2024-01-30T14:06:27;12.30;99.90
15636;DHT22;7917;50.818;6.972;2024-01-30T14:08:54;12.30;99.90
15636;DHT22;7917;50.818;6.972;2024-01-30T14:11:21;12.20;99.90
15636;DHT22;7917;50.818;6.972;2024-01-30T14:13:48;12.10;99.90
15636;DHT22;7917;50.818;6.972;2024-01-30T14:16:15;12.10;99.90
15636;DHT22;7917;50.818;6.972;2024-01-30T14:18:44;12.10;99.90
15636;DHT22;7917;50.818;6.972;2024-01-30T14:21:11;12.10;99.90
15636;DHT22;7917;50.818;6.972;2024-01-30T14:23:38;12.10;99.90
15636;DHT22;7917;50.818;6.972;2024-01-30T14:26:04;12.00;99.90
15636;DHT22;7917;50.818;6.972;2024-01-30T14:28:32;12.00;99.90
15636;DHT22;7917;50.818;6.972;2024-01-30T14:31:00;12.00;99.90
15636;DHT22;7917;50.818;6.972;2024-01-30T14:33:30;11.90;99.90
15636;DHT22;7917;50.818;6.972;2024-01-30T14:35:57;11.80;99.90
15636;DHT22;7917;50.818;6.972;2024-01-30T14:38:24;11.80;99.90
15636;DHT22;7917;50.818;6.972;2024-01-30T14:40:51;11.70;99.90
15636;DHT22;7917;50.818;6.972;2024-01-30T14:43:18;11.60;99.90
15636;DHT22;7917;50.818;6.972;2024-01-30T14:45:45;11.60;99.90
15636;DHT22;7917;50.818;6.972;2024-01-30T14:48:15;11.50;99.90
15636;DHT22;7917;50.818;6.972;2024-01-30T14:50:44;11.50;99.90
15636;DHT22;7917;50.818;6.972;2024-01-30T14:53:11;11.50;99.90
15636;DHT22;7917;50.818;6.972;2024-01-30T14:55:38;11.50;99.90
15636;DHT22;7917;50.818;6.972;2024-01-30T14:58:05;11.50;99.90
15636;DHT22;7917;50.818;6.972;2024-01-30T15:00:32;11.40;99.90
15636;DHT22;7917;50.818;6.972;2024-01-30T15:02:58;11.40;99.90
15636;DHT22;7917;50.818;6.972;2024-01-30T15:05:26;11.30;99.90
15636;DHT22;7917;50.818;6.972;2024-01-30T15:07:53;11.30;99.90
15636;DHT22;7917;50.818;6.972;2024-01-30T15:10:21;11.20;99.90
15636;DHT22;7917;50.818;6.972;2024-01-30T15:12:54;11.20;99.90
15636;DHT22;7917;50.818;6.972;2024-01-30T15:15:21;11.10;99.90
15636;DHT22;7917;50.818;6.972;2024-01-30T15:17:48;11.20;99.90
15636;DHT22;7917;50.818;6.972;2024-01-30T15:20:15;11.10;99.90
15636;DHT22;7917;50.818;6.972;2024-01-30T15:22:43;11.10;99.90
15636;DHT22;7917;50.818;6.972;2024-01-30T15:25:11;11.00;99.90
15636;DHT22;7917;50.818;6.972;2024-01-30T15:27:38;11.00;99.90
15636;DHT22;7917;50.818;6.972;2024-01-30T15:30:06;11.00;99.90
15636;DHT22;7917;50.818;6.972;2024-01-30T15:32:33;11.00;99.90
15636;DHT22;7917;50.818;6.972;2024-01-30T15:35:00;11.00;99.90
15636;DHT22;7917;50.818;6.972;2024-01-30T15:37:29;11.00;99.90
15636;DHT22;7917;50.818;6.972;2024-01-30T15:39:56;11.00;99.90
15636;DHT22;7917;50.818;6.972;2024-01-30T15:42:23;11.00;99.90
15636;DHT22;7917;50.818;6.972;2024-01-30T15:44:50;10.90;99.90
15636;DHT22;7917;50.818;6.972;2024-01-30T15:47:17;10.90;99.90
15636;DHT22;7917;50.818;6.972;2024-01-30T15:49:44;11.00;99.90
15636;DHT22;7917;50.818;6.972;2024-01-30T15:52:11;10.90;99.90
15636;DHT22;7917;50.818;6.972;2024-01-30T15:54:40;10.90;99.90
15636;DHT22;7917;50.818;6.972;2024-01-30T15:57:07;11.00;99.90